Rockton, PA

3:00 AM EDT on September 20, 2014 (GMT -0400)
Holly Terrace | Change Station
CLOSE
Current Station
Personal Weather Station
Location: Falls Creek, PA
Elevation: 1473 ft
Nearby Weather Stations

Elev 1473 ft 41.14 °N, 78.81 °W | Updated 5 seconds ago

Mostly Cloudy
Mostly Cloudy
54.1 °F
Feels Like 54.1 °F
N
4.0
Wind Variable Wind from SSE
Gusts 4.0 mph

Today
High -- | Low -- °F
--% Chance of Precip.
Yesterday
High -- | Low -- °F
Precip. -- in
7:00 AM 7:15 PM
Waning Crescent, 14% visible
Pressure 30.21 in
Visibility 10.0 miles
Clouds Overcast 2200 ft
Dew Point 53 °F
Humidity 97%
Rainfall 0.00 in
Snow Depth Not available.
UV 0 out of 12
Pollen 3.70 out of 12
Air Quality Not available.
Flu Activity Not available.
METAR KFIG 200654Z AUTO 00000KT 10SM OVC022 13/12 A3022 RMK AO2 SLP228 T01330117

More Conditions Fewer Conditions

Pressure 30.21 in
Visibility 10.0 miles
Clouds Overcast 2200 ft
Dew Point 53 °F
Humidity 97%
Rainfall 0.00 in
Snow Depth Not available.
UV 0 out of 12
Pollen 3.70 out of 12
Air Quality Not available.
Flu Activity Not available.
METAR KFIG 200654Z AUTO 00000KT 10SM OVC022 13/12 A3022 RMK AO2 SLP228 T01330117

More Conditions Fewer Conditions

10-Day Weather Forecast

Almanac

Astronomy

Sep. 20, 2014 Rise Set
Actual Time 7:00 AM EDT 7:15 PM EDT
Civil Twilight 6:32 AM EDT 7:42 PM EDT
Nautical Twilight 6:00 AM EDT 8:14 PM EDT
Astronomical Twilight 5:27 AM EDT 8:47 PM EDT
Moon 3:36 AM EDT 5:18 PM EDT
Length of Visible Light 13h 10m
Length of Day
12h 15m
Tomorrow will be 2m 42s shorter.
Waning Crescent, 14% of the Moon is Illuminated
Today
Waning Crescent
Sep 24
New
Oct 1
First Quarter
Oct 8
Full
Oct 15
Last Quarter

Today's Extremes

State Highs State Lows

Community

WunderPhotos

Upload Photos

1,754,780 photos uploaded!

WunderBlogs® & News

Nearby

Snow Depth

Station Depth Elevation
No new snow has been reported.

Earthquake Activity

City Distance Mag. Time & Date
No recent earthquake activity has been reported nearby.
Minimum magnitude displayed is 2.5.

Coastal Water Temperatures

Place Temperature
No Stations Reporting

Nearby Weather Stations